Time;durP1;ratioP1;P1;durP2;ratioP2;P2;SDS_P1;SDS_P2;PMS_P1;PMS_P2;Temp;Humidity;BMP_temperature;BMP_pressure;BME280_temperature;BME280_humidity;BME280_pressure;Samples;Min_cycle;Max_cycle;Signal;HPM_P1;HPM_P2
2022/01/10 00:00:31;;;;;;;3.78;3.17;;;;;;;9.05;47.55;94612.41;5031280;28;20037;-65
2022/01/10 00:02:59;;;;;;;5.10;3.55;;;;;;;8.96;47.83;94617.69;5031839;28;20033;-65
2022/01/10 00:05:25;;;;;;;4.72;2.92;;;;;;;8.76;47.12;94608.41;5031912;28;20045;-65
2022/01/10 00:07:50;;;;;;;4.90;3.20;;;;;;;8.51;48.76;94632.91;5032764;28;20037;-65
2022/01/10 00:10:17;;;;;;;3.67;3.28;;;;;;;7.23;50.62;94582.75;5031448;28;20029;-65
2022/01/10 00:12:43;;;;;;;4.40;3.40;;;;;;;8.04;49.86;94590.00;5031659;28;20654;-65
2022/01/10 00:15:10;;;;;;;4.53;2.92;;;;;;;7.91;49.50;94557.19;5031940;28;20029;-65
2022/01/10 00:17:39;;;;;;;3.40;3.10;;;;;;;8.54;49.21;94630.41;5031688;28;20032;-65
2022/01/10 00:20:09;;;;;;;3.88;3.33;;;;;;;7.74;48.99;94520.78;5030871;28;20028;-65
2022/01/10 00:22:35;;;;;;;4.93;3.45;;;;;;;8.70;48.89;94630.03;5030237;28;20065;-65
2022/01/10 00:25:01;;;;;;;6.25;3.88;;;;;;;8.56;48.66;94585.06;5031059;28;20033;-65
2022/01/10 00:27:27;;;;;;;4.15;3.28;;;;;;;8.59;48.52;94574.59;5031348;28;20030;-65
2022/01/10 00:29:52;;;;;;;6.03;3.40;;;;;;;8.93;47.93;94613.00;5030783;28;20391;-65
2022/01/10 00:32:18;;;;;;;3.95;3.17;;;;;;;9.01;48.27;94614.13;5030829;28;20041;-65
2022/01/10 00:34:44;;;;;;;4.18;3.38;;;;;;;8.93;48.03;94596.31;5031294;28;20100;-65
2022/01/10 00:37:09;;;;;;;5.40;3.95;;;;;;;8.55;47.28;94549.03;5030273;28;20018;-65
2022/01/10 00:39:35;;;;;;;4.63;3.28;;;;;;;9.10;47.92;94630.84;5012648;28;20477;-65
2022/01/10 00:42:01;;;;;;;3.60;3.25;;;;;;;9.17;47.93;94633.06;5030445;28;20116;-65
2022/01/10 00:44:28;;;;;;;3.55;3.05;;;;;;;8.95;48.04;94594.88;5031005;28;20029;-66
2022/01/10 00:46:54;;;;;;;3.97;3.33;;;;;;;9.14;47.88;94621.19;5031057;28;20030;-64
2022/01/10 00:49:19;;;;;;;5.72;3.58;;;;;;;8.72;47.63;94543.81;5030424;28;20025;-66
2022/01/10 00:51:44;;;;;;;6.65;3.47;;;;;;;8.63;47.62;94526.28;5013705;28;20053;-64
2022/01/10 00:54:10;;;;;;;7.75;3.08;;;;;;;8.67;47.85;94553.75;5030329;28;20068;-65
2022/01/10 00:56:35;;;;;;;5.95;3.83;;;;;;;8.96;47.45;94622.22;5030548;28;20017;-64
2022/01/10 00:59:01;;;;;;;8.23;4.03;;;;;;;8.33;47.89;94600.94;5030346;28;20562;-64
2022/01/10 01:01:26;;;;;;;4.15;3.33;;;;;;;8.38;48.66;94612.53;5030691;28;20025;-65
2022/01/10 01:03:52;;;;;;;6.20;3.63;;;;;;;7.75;49.62;94571.88;5031244;28;20100;-65
2022/01/10 01:06:17;;;;;;;4.35;3.38;;;;;;;7.81;50.25;94631.56;5030450;28;20035;-64
2022/01/10 01:08:45;;;;;;;5.55;3.40;;;;;;;7.47;49.81;94532.25;5032105;28;20029;-65
2022/01/10 01:13:57;;;;;;;6.28;3.75;;;;;;;8.20;49.73;94643.41;5030519;28;20435;-65
2022/01/10 01:24:18;;;;;;;7.20;3.65;;;;;;;7.91;50.15;94641.16;5031730;28;20438;-65
2022/01/10 01:26:47;;;;;;;5.35;3.65;;;;;;;8.03;49.85;94622.84;5030109;28;20025;-65
2022/01/10 01:29:16;;;;;;;4.10;3.70;;;;;;;8.40;49.47;94660.75;5029828;28;20029;-65
2022/01/10 01:31:41;;;;;;;7.72;3.92;;;;;;;8.00;49.27;94596.97;5012385;28;20471;-65
2022/01/10 01:34:07;;;;;;;4.43;4.00;;;;;;;8.27;49.36;94652.50;5012027;28;20075;-66
2022/01/10 01:36:34;;;;;;;5.75;4.55;;;;;;;8.46;49.32;94668.25;5030205;28;20040;-65
2022/01/10 01:39:00;;;;;;;6.47;4.32;;;;;;;8.50;49.50;94679.06;5030900;28;20399;-65
2022/01/10 01:43:55;;;;;;;4.78;4.28;;;;;;;7.83;49.21;94597.66;5030431;28;20032;-65
2022/01/10 01:46:20;;;;;;;5.13;4.40;;;;;;;8.33;49.10;94651.28;5030289;28;20029;-66
2022/01/10 01:48:47;;;;;;;5.78;4.10;;;;;;;7.87;49.23;94587.22;5029956;28;20064;-65
2022/01/10 01:51:14;;;;;;;5.05;3.47;;;;;;;8.24;48.84;94639.88;5029157;28;20037;-64
2022/01/10 01:53:40;;;;;;;5.10;3.90;;;;;;;8.69;49.29;94705.34;5032516;28;20495;-66
2022/01/10 01:56:07;;;;;;;5.95;3.58;;;;;;;8.41;48.65;94651.69;5029595;28;20029;-66
2022/01/10 01:58:33;;;;;;;5.72;3.35;;;;;;;8.61;48.80;94682.25;5029827;28;20459;-64
2022/01/10 02:00:59;;;;;;;9.88;3.63;;;;;;;8.77;48.65;94699.34;5029791;28;20022;-65
2022/01/10 02:03:24;;;;;;;5.05;3.72;;;;;;;8.50;48.27;94657.84;5029634;28;20033;-65
2022/01/10 02:05:50;;;;;;;4.93;4.40;;;;;;;8.81;48.36;94717.00;5029711;28;20042;-65
2022/01/10 02:08:16;;;;;;;3.83;3.20;;;;;;;8.73;48.22;94693.06;5030709;28;20037;-65
2022/01/10 02:10:41;;;;;;;3.67;3.28;;;;;;;8.88;48.38;94719.22;5028893;28;20025;-65
2022/01/10 02:13:07;;;;;;;4.90;3.75;;;;;;;8.49;48.36;94654.38;5009514;28;20045;-65
2022/01/10 02:18:14;;;;;;;6.32;4.28;;;;;;;8.99;48.28;94725.84;5009853;28;20049;-65
2022/01/10 02:20:40;;;;;;;3.80;3.20;;;;;;;8.85;48.05;94722.47;5009423;28;20395;-65
2022/01/10 02:23:05;;;;;;;4.63;4.13;;;;;;;8.70;47.91;94691.81;5026923;28;20032;-64
2022/01/10 02:25:31;;;;;;;5.25;4.32;;;;;;;9.03;47.61;94740.06;5029072;28;20450;-65
2022/01/10 02:27:56;;;;;;;4.40;3.85;;;;;;;9.01;48.05;94738.81;5011649;28;20537;-65
2022/01/10 02:30:22;;;;;;;5.60;3.25;;;;;;;8.23;47.10;94629.56;5029057;28;20072;-65
2022/01/10 02:32:48;;;;;;;4.65;3.50;;;;;;;8.68;47.74;94706.44;5028807;28;20029;-65
2022/01/10 02:35:32;;;;;;;4.40;3.35;;;;;;;8.87;48.13;94741.53;5029305;28;20038;-65
2022/01/10 02:37:58;;;;;;;3.58;3.28;;;;;;;8.97;48.41;94749.22;5030253;28;20017;-66
2022/01/10 02:40:27;;;;;;;4.88;2.83;;;;;;;8.73;48.00;94708.97;5028709;28;20040;-66
2022/01/10 02:42:53;;;;;;;4.13;3.00;;;;;;;8.74;47.49;94737.84;5028732;28;20025;-65
2022/01/10 02:45:19;;;;;;;4.10;3.70;;;;;;;8.69;48.12;94708.78;5029743;28;20025;-65
2022/01/10 02:47:46;;;;;;;5.70;3.42;;;;;;;8.98;47.99;94761.41;5033129;28;20033;-65
2022/01/10 02:50:12;;;;;;;4.13;3.35;;;;;;;8.71;48.01;94722.53;5032786;28;20033;-66
2022/01/10 02:52:38;;;;;;;5.35;3.38;;;;;;;9.05;48.25;94763.63;5015480;28;20021;-65
2022/01/10 02:55:06;;;;;;;6.18;4.13;;;;;;;9.14;47.63;94764.47;5032743;28;20120;-64
2022/01/10 02:57:32;;;;;;;4.50;3.63;;;;;;;9.19;47.62;94774.19;5032719;28;20418;-66
2022/01/10 03:00:02;;;;;;;4.30;3.28;;;;;;;8.71;47.68;94698.69;5032764;28;20036;-67
2022/01/10 03:02:32;;;;;;;4.43;4.03;;;;;;;8.56;47.75;94685.78;5032555;28;20080;-67
2022/01/10 03:04:57;;;;;;;4.90;4.40;;;;;;;8.92;47.72;94748.56;5032667;28;20045;-66
2022/01/10 03:07:23;;;;;;;6.45;4.10;;;;;;;8.89;48.05;94746.53;5033972;28;20459;-66
2022/01/10 03:09:50;;;;;;;4.47;3.90;;;;;;;8.54;47.89;94701.19;5033567;28;20689;-66
2022/01/10 03:12:16;;;;;;;6.30;4.50;;;;;;;8.65;47.98;94718.47;5032405;28;20535;-65
2022/01/10 03:14:42;;;;;;;6.85;4.53;;;;;;;8.98;47.69;94742.06;5032829;28;20029;-66
2022/01/10 03:17:09;;;;;;;5.95;4.00;;;;;;;8.48;47.46;94665.31;5032503;28;20113;-65
2022/01/10 03:19:34;;;;;;;4.55;3.78;;;;;;;9.03;47.50;94750.66;5032066;28;20064;-66
2022/01/10 03:22:00;;;;;;;4.53;3.83;;;;;;;8.99;47.69;94747.06;5033376;28;20052;-66
2022/01/10 03:24:26;;;;;;;5.88;3.80;;;;;;;9.29;47.64;94787.97;5032324;28;20029;-66
2022/01/10 03:26:51;;;;;;;5.78;4.00;;;;;;;9.11;47.61;94768.53;5032336;28;20394;-66
2022/01/10 03:29:16;;;;;;;4.95;4.43;;;;;;;9.21;47.65;94783.38;5030951;28;20029;-65
2022/01/10 03:31:42;;;;;;;4.80;3.72;;;;;;;9.06;47.39;94759.91;5031396;28;20032;-66
2022/01/10 03:34:11;;;;;;;6.15;4.38;;;;;;;9.41;47.21;94813.94;5027245;28;20017;-65
2022/01/10 03:36:36;;;;;;;7.05;4.53;;;;;;;9.21;47.40;94788.69;5050922;28;20033;-66
2022/01/10 03:39:02;;;;;;;6.10;3.95;;;;;;;9.26;47.11;94799.19;5031746;28;20037;-66
2022/01/10 03:41:28;;;;;;;5.03;4.53;;;;;;;8.87;47.16;94793.78;5031791;28;20017;-66
2022/01/10 03:43:54;;;;;;;8.10;4.40;;;;;;;8.68;48.10;94813.28;5031849;28;20022;-66
2022/01/10 03:46:19;;;;;;;6.45;4.60;;;;;;;6.84;52.23;94780.75;5032001;28;20033;-65
2022/01/10 03:48:44;;;;;;;5.50;4.43;;;;;;;6.45;55.39;94840.78;5032051;28;20108;-65
2022/01/10 03:51:10;;;;;;;7.13;4.70;;;;;;;6.11;55.54;94800.53;5014067;28;20120;-65
2022/01/10 03:53:36;;;;;;;5.30;4.60;;;;;;;6.58;55.11;94817.34;5031861;28;20033;-65
2022/01/10 03:56:02;;;;;;;6.28;4.53;;;;;;;6.74;53.95;94795.69;5031921;28;20025;-65
2022/01/10 03:58:27;;;;;;;7.95;4.35;;;;;;;6.19;54.77;94763.72;5031992;28;20030;-66
2022/01/10 04:00:52;;;;;;;5.47;4.82;;;;;;;7.09;52.96;94827.94;5031587;28;20053;-65
2022/01/10 04:03:18;;;;;;;6.25;4.75;;;;;;;6.26;54.97;94795.06;5031748;28;20025;-65
2022/01/10 04:05:44;;;;;;;5.82;4.55;;;;;;;6.95;54.29;94832.38;5031485;28;20087;-65
2022/01/10 04:08:09;;;;;;;6.65;5.03;;;;;;;5.55;55.98;94753.66;5032757;28;20026;-65
2022/01/10 04:10:35;;;;;;;6.07;4.82;;;;;;;5.96;56.42;94796.22;5031039;28;20030;-65
2022/01/10 04:13:00;;;;;;;8.60;4.72;;;;;;;6.29;55.67;94844.66;5031385;28;20075;-65
2022/01/10 04:15:26;;;;;;;7.05;4.65;;;;;;;5.36;56.53;94743.81;5031770;28;20025;-65
2022/01/10 04:17:55;;;;;;;10.60;5.80;;;;;;;5.92;58.19;94853.28;5031942;28;20025;-65
2022/01/10 04:20:21;;;;;;;7.88;4.97;;;;;;;5.81;57.28;94854.44;5030919;28;20030;-64
2022/01/10 04:22:46;;;;;;;7.40;5.35;;;;;;;5.68;57.61;94856.69;5032148;28;20052;-64
2022/01/10 04:25:12;;;;;;;7.18;5.28;;;;;;;6.15;57.17;94865.72;5032753;28;20033;-64
2022/01/10 04:27:37;;;;;;;6.85;5.18;;;;;;;5.54;56.63;94794.31;5031063;28;20554;-64
2022/01/10 04:30:03;;;;;;;6.20;5.53;;;;;;;5.84;56.00;94780.00;5030920;28;20751;-65
2022/01/10 04:32:31;;;;;;;7.47;6.10;;;;;;;6.44;55.89;94864.81;5012963;28;20029;-65
2022/01/10 04:34:57;;;;;;;7.93;6.18;;;;;;;5.99;55.82;94816.78;5031066;28;20025;-65
2022/01/10 04:37:22;;;;;;;6.30;5.70;;;;;;;6.30;55.68;94826.97;5012908;28;20038;-64
2022/01/10 04:39:48;;;;;;;8.27;6.45;;;;;;;7.12;54.75;94885.56;5014091;28;20036;-64
2022/01/10 04:42:13;;;;;;;7.82;6.22;;;;;;;6.91;54.26;94849.88;5030938;28;20022;-66
2022/01/10 04:44:41;;;;;;;11.23;7.00;;;;;;;7.21;53.00;94853.94;5031588;28;20639;-65
2022/01/10 04:47:06;;;;;;;12.52;6.88;;;;;;;7.27;53.77;94909.13;5031479;28;20022;-66
2022/01/10 04:49:47;;;;;;;9.02;6.82;;;;;;;7.21;52.84;94867.94;5031182;28;20021;-65
2022/01/10 04:52:13;;;;;;;9.43;6.80;;;;;;;7.38;52.75;94888.59;5030724;28;20037;-65
2022/01/10 04:54:38;;;;;;;8.70;6.82;;;;;;;7.65;51.96;94855.31;5032447;28;20383;-65
2022/01/10 04:57:04;;;;;;;13.15;6.97;;;;;;;7.06;53.06;94862.88;5031139;28;20033;-65
2022/01/10 04:59:29;;;;;;;8.98;6.75;;;;;;;7.12;53.36;94866.25;5030663;28;20025;-65
2022/01/10 05:01:55;;;;;;;9.15;6.50;;;;;;;6.84;53.95;94881.19;5030710;28;20128;-65
2022/01/10 05:04:20;;;;;;;8.02;6.47;;;;;;;6.77;55.35;94924.66;5012900;28;20079;-65
2022/01/10 05:06:46;;;;;;;8.50;7.10;;;;;;;6.75;55.75;94926.00;5013293;28;20057;-65
2022/01/10 05:09:11;;;;;;;9.23;7.15;;;;;;;6.99;53.94;94931.22;5030490;28;20029;-65
2022/01/10 05:11:39;;;;;;;9.50;6.43;;;;;;;7.01;53.77;94882.28;5030505;28;20031;-65
2022/01/10 05:14:05;;;;;;;9.65;7.20;;;;;;;6.66;53.92;94843.13;5029961;28;20617;-65
2022/01/10 05:16:30;;;;;;;8.43;7.40;;;;;;;6.76;54.16;94885.28;5030505;28;20036;-65
2022/01/10 05:18:55;;;;;;;8.02;7.22;;;;;;;6.59;55.26;94953.69;5030150;28;20025;-66
2022/01/10 05:21:21;;;;;;;11.57;7.07;;;;;;;6.50;56.51;94945.63;5030379;28;20025;-65
2022/01/10 05:23:46;;;;;;;7.00;6.30;;;;;;;5.51;56.68;94844.97;5013116;28;20510;-65
2022/01/10 05:26:12;;;;;;;9.63;7.97;;;;;;;6.44;56.42;94958.06;5030128;28;20021;-65
2022/01/10 05:28:37;;;;;;;8.68;7.78;;;;;;;6.03;57.15;94899.63;5030153;28;20026;-65
2022/01/10 05:31:03;;;;;;;8.93;7.90;;;;;;;5.92;57.88;94949.09;5012041;28;20021;-65
2022/01/10 05:33:28;;;;;;;9.23;7.90;;;;;;;6.58;55.34;94899.25;5029846;28;20036;-65
2022/01/10 05:35:54;;;;;;;10.85;7.63;;;;;;;7.22;54.54;94970.06;5030054;28;20022;-65
2022/01/10 05:38:20;;;;;;;8.68;7.80;;;;;;;7.22;53.37;94950.75;5030965;28;20038;-65
2022/01/10 05:40:45;;;;;;;11.15;8.40;;;;;;;7.30;53.89;94964.09;5030739;28;20033;-65
2022/01/10 05:43:11;;;;;;;9.90;8.90;;;;;;;7.55;53.38;94956.88;5011874;28;20148;-65
2022/01/10 05:45:36;;;;;;;9.63;8.63;;;;;;;7.20;52.38;94892.81;5029675;28;20032;-66
2022/01/10 05:48:08;;;;;;;10.63;9.32;;;;;;;6.63;53.84;94902.63;5029918;28;20478;-65
2022/01/10 05:50:35;;;;;;;;;;;;;;;6.76;55.35;94985.75;5029803;28;20021;-65
2022/01/10 05:53:01;;;;;;;11.38;8.75;;;;;;;6.77;56.29;94984.66;5030443;28;19944;-65
2022/01/10 05:55:27;;;;;;;12.38;9.32;;;;;;;6.09;57.50;94961.09;5029397;28;20048;-65
2022/01/10 05:57:54;;;;;;;13.52;9.05;;;;;;;6.16;56.26;94922.75;5011968;28;20684;-65
2022/01/10 06:00:19;;;;;;;13.40;9.88;;;;;;;6.22;57.21;94997.41;5011265;28;20030;-65
2022/01/10 06:02:45;;;;;;;11.25;9.45;;;;;;;6.06;56.63;94946.59;5029245;28;20027;-65
2022/01/10 06:05:10;;;;;;;13.27;10.15;;;;;;;6.25;56.62;94983.66;5030078;28;20033;-65
2022/01/10 06:07:37;;;;;;;13.02;10.70;;;;;;;6.38;56.18;95011.25;5030115;28;20025;-65
2022/01/10 06:10:06;;;;;;;18.05;11.35;;;;;;;6.77;55.79;94989.94;5029829;28;20154;-65
2022/01/10 06:12:32;;;;;;;13.50;10.20;;;;;;;6.22;57.31;95024.63;5029115;28;20368;-65
2022/01/10 06:14:57;;;;;;;13.85;10.98;;;;;;;6.87;55.09;95003.03;5029136;28;20025;-65
2022/01/10 06:17:23;;;;;;;12.20;10.90;;;;;;;6.91;54.90;95021.75;5029568;28;20017;-65
2022/01/10 06:19:48;;;;;;;12.68;10.80;;;;;;;7.36;55.29;95032.81;5011093;28;20025;-63
2022/01/10 06:22:13;;;;;;;14.95;11.23;;;;;;;7.19;54.33;95018.22;5011235;28;20029;-65
2022/01/10 06:24:39;;;;;;;15.10;11.43;;;;;;;8.11;52.80;95038.06;5014286;28;20037;-65
2022/01/10 06:27:05;;;;;;;13.95;10.85;;;;;;;6.95;54.64;95033.34;5011658;28;20367;-65
2022/01/10 06:29:30;;;;;;;17.83;10.98;;;;;;;7.68;53.35;95051.44;5029346;28;20033;-64
2022/01/10 06:31:56;;;;;;;14.05;11.20;;;;;;;7.66;52.90;95035.03;5029775;28;20033;-65
2022/01/10 06:34:21;;;;;;;12.23;10.93;;;;;;;6.61;55.39;95050.13;5011667;28;20021;-67
2022/01/10 06:36:47;;;;;;;20.15;11.63;;;;;;;6.69;54.94;94994.00;5029239;28;20025;-65
2022/01/10 06:39:12;;;;;;;15.48;11.57;;;;;;;6.36;55.08;94994.91;5029957;28;20032;-64
2022/01/10 06:41:39;;;;;;;14.88;11.75;;;;;;;6.67;55.95;95049.00;5028766;28;20471;-63
2022/01/10 06:44:04;;;;;;;19.13;12.75;;;;;;;7.56;54.20;95064.31;5028851;28;20033;-66
2022/01/10 06:46:30;;;;;;;16.00;13.07;;;;;;;7.82;53.46;95065.50;5029054;28;20136;-64
2022/01/10 06:48:55;;;;;;;19.10;14.75;;;;;;;7.86;52.71;95094.06;5027617;28;20021;-65
2022/01/10 06:51:20;;;;;;;18.30;14.90;;;;;;;7.02;53.32;95017.94;5027710;28;20079;-65
2022/01/10 06:53:46;;;;;;;20.15;15.23;;;;;;;7.70;53.20;95059.09;5028693;28;20786;-65
2022/01/10 06:56:11;;;;;;;19.67;15.10;;;;;;;7.71;53.86;95105.66;5029032;28;20017;-66
2022/01/10 06:58:38;;;;;;;23.60;13.90;;;;;;;7.52;54.34;95097.69;5029030;28;20112;-66
2022/01/10 07:01:03;;;;;;;18.67;13.88;;;;;;;7.39;53.65;95061.38;5028588;28;20052;-66
2022/01/10 07:03:29;;;;;;;21.35;13.95;;;;;;;6.69;54.80;95073.28;5010582;28;20026;-67
2022/01/10 07:05:54;;;;;;;19.90;14.63;;;;;;;6.22;57.83;95093.28;5028826;28;20386;-66
2022/01/10 07:08:22;;;;;;;20.33;15.52;;;;;;;6.64;56.32;95099.78;5028476;28;20136;-66
2022/01/10 07:10:48;;;;;;;19.13;15.00;;;;;;;6.74;56.71;95126.09;5030329;28;20044;-66
2022/01/10 07:13:13;;;;;;;22.13;14.73;;;;;;;6.20;58.07;95134.25;5029223;28;20026;-66
2022/01/10 07:15:38;;;;;;;24.25;17.05;;;;;;;6.69;57.07;95112.94;5029341;28;20107;-65
2022/01/10 07:18:04;;;;;;;20.55;14.93;;;;;;;6.52;57.08;95136.38;5011279;28;20036;-64
2022/01/10 07:20:31;;;;;;;17.67;15.15;;;;;;;6.77;56.74;95107.06;5028180;28;20032;-64
2022/01/10 07:22:57;;;;;;;24.48;15.77;;;;;;;6.84;56.91;95145.59;5027856;28;20029;-65
2022/01/10 07:25:22;;;;;;;22.92;16.25;;;;;;;7.01;56.75;95133.53;5028434;28;20040;-63
2022/01/10 07:27:48;;;;;;;21.33;15.07;;;;;;;6.86;56.44;95135.50;5010782;28;20057;-64
2022/01/10 07:30:13;;;;;;;22.40;15.63;;;;;;;7.32;55.51;95138.47;5010769;28;20026;-62
2022/01/10 07:32:38;;;;;;;24.42;15.52;;;;;;;7.54;55.10;95167.81;5030834;28;20139;-65
2022/01/10 07:35:05;;;;;;;20.92;15.13;;;;;;;7.20;55.85;95130.13;5031911;28;20055;-66
2022/01/10 07:37:30;;;;;;;23.35;15.75;;;;;;;7.48;54.01;95160.25;5014403;28;20538;-65
2022/01/10 07:39:55;;;;;;;23.52;15.38;;;;;;;8.20;53.83;95179.41;5031017;28;20033;-64
2022/01/10 07:42:21;;;;;;;22.00;15.80;;;;;;;7.74;53.35;95148.25;5031646;28;20098;-66
2022/01/10 07:44:46;;;;;;;26.35;17.08;;;;;;;7.97;53.00;95161.69;5031793;28;20097;-65
2022/01/10 07:47:12;;;;;;;19.73;14.77;;;;;;;7.88;53.35;95180.09;5031891;28;20033;-63
2022/01/10 07:49:38;;;;;;;20.90;15.25;;;;;;;8.32;52.61;95200.94;5031416;28;20489;-65
2022/01/10 07:52:03;;;;;;;23.42;16.65;;;;;;;8.73;52.34;95205.66;5013608;28;20495;-65
2022/01/10 07:54:29;;;;;;;25.33;16.15;;;;;;;8.79;51.50;95195.75;5032611;28;20075;-65
2022/01/10 07:56:54;;;;;;;21.67;16.27;;;;;;;8.72;51.26;95209.38;5033128;28;20041;-64
2022/01/10 07:59:22;;;;;;;23.52;15.95;;;;;;;9.10;51.07;95223.31;5031511;28;20446;-66
2022/01/10 08:01:48;;;;;;;20.25;14.70;;;;;;;8.66;50.60;95207.91;5031579;28;20117;-66
2022/01/10 08:04:14;;;;;;;23.10;16.00;;;;;;;8.46;51.11;95184.34;5031322;28;20108;-65
2022/01/10 08:06:39;;;;;;;21.98;15.27;;;;;;;8.66;51.52;95239.72;5031715;28;20104;-66
2022/01/10 08:09:06;;;;;;;22.02;15.30;;;;;;;7.98;52.85;95240.88;5032318;28;20282;-66
2022/01/10 08:11:31;;;;;;;22.17;15.13;;;;;;;8.50;51.56;95202.03;5033080;28;20049;-66
2022/01/10 08:13:57;;;;;;;21.60;15.63;;;;;;;8.47;52.15;95212.44;5031278;28;20071;-70
2022/01/10 08:16:22;;;;;;;26.70;14.88;;;;;;;8.45;51.73;95198.69;5031833;28;20052;-66
2022/01/10 08:18:48;;;;;;;23.73;15.68;;;;;;;8.10;51.74;95179.53;5031718;28;20075;-65
2022/01/10 08:21:13;;;;;;;24.35;15.80;;;;;;;7.11;54.52;95222.53;5031224;28;20030;-66
2022/01/10 08:23:39;;;;;;;19.58;15.07;;;;;;;6.99;55.98;95253.84;5032066;28;20036;-66
2022/01/10 08:26:08;;;;;;;27.65;16.63;;;;;;;8.05;53.48;95225.44;5031647;28;20014;-66
2022/01/10 08:28:34;;;;;;;25.33;17.13;;;;;;;8.05;52.92;95201.59;5031048;28;20033;-65
2022/01/10 08:31:00;;;;;;;27.88;17.27;;;;;;;8.58;52.13;95261.56;5031236;28;20493;-66
2022/01/10 08:33:25;;;;;;;27.67;17.00;;;;;;;8.70;51.00;95256.63;5030543;28;20120;-66
2022/01/10 08:35:51;;;;;;;21.33;17.10;;;;;;;8.71;51.60;95274.09;5013453;28;20029;-65
2022/01/10 08:38:17;;;;;;;29.25;18.25;;;;;;;8.69;51.04;95236.47;5030616;28;20165;-65
2022/01/10 08:40:43;;;;;;;26.92;17.00;;;;;;;8.26;50.95;95233.91;5032112;28;20034;-66
2022/01/10 08:43:10;;;;;;;26.92;17.10;;;;;;;7.60;53.83;95281.59;5029492;28;20021;-66
2022/01/10 08:45:37;;;;;;;30.48;18.55;;;;;;;8.67;52.28;95281.06;5030960;28;20018;-66
2022/01/10 08:48:03;;;;;;;30.40;19.80;;;;;;;8.56;50.99;95221.31;5013155;28;20021;-66
2022/01/10 08:50:29;;;;;;;26.02;17.77;;;;;;;8.55;50.67;95286.03;5031308;28;20026;-66
2022/01/10 08:52:54;;;;;;;34.33;18.30;;;;;;;7.96;52.64;95256.28;5030487;28;20033;-66
2022/01/10 08:55:20;;;;;;;28.55;18.50;;;;;;;7.79;52.85;95269.22;5045398;28;20025;-65
2022/01/10 08:57:45;;;;;;;34.53;19.42;;;;;;;7.86;52.37;95276.78;5031750;28;20036;-66
2022/01/10 09:00:11;;;;;;;21.60;16.63;;;;;;;7.72;51.73;95231.66;5030249;28;20037;-67
2022/01/10 09:02:36;;;;;;;33.83;19.38;;;;;;;8.40;52.39;95304.78;5030093;28;20506;-66
2022/01/10 09:05:03;;;;;;;26.98;18.20;;;;;;;8.43;51.34;95306.84;5030412;28;20079;-65
2022/01/10 09:07:28;;;;;;;33.38;19.52;;;;;;;7.34;54.19;95296.94;5030583;28;20080;-65
2022/01/10 09:09:54;;;;;;;28.25;18.65;;;;;;;8.31;52.82;95310.69;5031027;28;20025;-66
2022/01/10 09:12:19;;;;;;;24.88;17.67;;;;;;;7.39;54.86;95318.06;5030080;28;20036;-66
2022/01/10 09:14:45;;;;;;;26.13;17.27;;;;;;;6.84;56.33;95346.53;5030195;28;20029;-65
2022/01/10 09:17:10;;;;;;;27.10;18.02;;;;;;;6.57;55.78;95249.97;5030403;28;20108;-66
2022/01/10 09:19:35;;;;;;;28.02;18.15;;;;;;;8.51;53.05;95324.78;5029671;28;20037;-66
2022/01/10 09:22:01;;;;;;;29.83;17.60;;;;;;;9.00;51.71;95323.53;5030169;28;20480;-66
2022/01/10 09:24:27;;;;;;;25.75;18.00;;;;;;;8.86;50.71;95291.66;5030873;28;20083;-66
2022/01/10 09:26:52;;;;;;;24.23;17.63;;;;;;;9.05;50.66;95324.25;5029922;28;20027;-67
2022/01/10 09:29:18;;;;;;;20.60;17.17;;;;;;;8.77;50.03;95331.31;5029594;28;20116;-66
2022/01/10 09:31:45;;;;;;;31.90;18.58;;;;;;;9.61;49.53;95346.44;5029942;28;20116;-67
2022/01/10 09:34:11;;;;;;;24.75;17.27;;;;;;;10.05;48.21;95342.47;5029534;28;20471;-67
2022/01/10 09:36:36;;;;;;;21.27;16.20;;;;;;;9.40;48.33;95337.25;5030089;28;20076;-67
2022/01/10 09:39:03;;;;;;;19.08;14.70;;;;;;;9.58;48.38;95360.31;5030534;28;20035;-66
2022/01/10 09:41:28;;;;;;;19.77;13.90;;;;;;;9.22;49.24;95368.84;5029523;28;20032;-66
2022/01/10 09:43:59;;;;;;;22.30;16.10;;;;;;;8.91;49.96;95362.41;5029413;28;20025;-66
2022/01/10 09:46:25;;;;;;;24.63;14.25;;;;;;;9.20;49.08;95341.00;5029900;28;20424;-67
2022/01/10 09:48:52;;;;;;;20.63;14.23;;;;;;;8.64;49.87;95339.16;5029907;28;20120;-66
2022/01/10 09:51:19;;;;;;;23.75;14.65;;;;;;;6.73;54.19;95311.44;5012037;28;20030;-66
2022/01/10 09:53:45;;;;;;;16.90;13.98;;;;;;;6.71;56.22;95377.81;5030503;28;20025;-68
2022/01/10 09:56:11;;;;;;;19.50;15.63;;;;;;;8.37;52.47;95358.34;5029277;28;20029;-66
2022/01/10 09:58:36;;;;;;;19.33;13.85;;;;;;;7.68;53.32;95369.16;5029775;28;20037;-66
2022/01/10 10:01:03;;;;;;;22.73;15.00;;;;;;;7.97;52.95;95392.16;5029139;28;20037;-66
2022/01/10 10:03:29;;;;;;;21.85;14.45;;;;;;;7.55;53.00;95370.56;5029555;28;20479;-67
2022/01/10 10:05:56;;;;;;;24.98;14.35;;;;;;;6.75;54.89;95384.09;5011723;28;20128;-67
2022/01/10 10:08:24;;;;;;;26.75;15.02;;;;;;;8.18;52.96;95382.91;5029218;28;20081;-66
2022/01/10 10:10:50;;;;;;;20.45;14.57;;;;;;;8.60;50.72;95386.72;5032113;28;20459;-67
2022/01/10 10:13:16;;;;;;;24.48;15.82;;;;;;;8.88;50.96;95406.22;5029158;28;20029;-65
2022/01/10 10:15:44;;;;;;;25.65;17.08;;;;;;;9.33;49.11;95364.16;5029573;28;20025;-66
2022/01/10 10:18:11;;;;;;;29.52;17.55;;;;;;;8.11;50.86;95358.63;5029515;28;20022;-67
2022/01/10 10:20:40;;;;;;;24.88;17.52;;;;;;;7.98;52.53;95410.41;5029052;28;20072;-67
2022/01/10 10:23:05;;;;;;;24.85;17.77;;;;;;;7.48;54.25;95393.94;5028901;28;20033;-66
2022/01/10 10:25:33;;;;;;;29.08;17.08;;;;;;;7.43;53.79;95372.03;5030462;28;20095;-66
2022/01/10 10:27:59;;;;;;;30.33;19.48;;;;;;;8.38;52.69;95421.69;5030396;28;20028;-66
2022/01/10 10:30:28;;;;;;;29.30;18.20;;;;;;;7.78;53.59;95390.22;5029567;28;20518;-67
2022/01/10 10:33:14;;;;;;;28.90;18.60;;;;;;;8.24;52.88;95420.75;5028815;28;20116;-66
2022/01/10 10:35:39;;;;;;;29.08;18.25;;;;;;;9.15;50.67;95399.47;5029463;28;20084;-66
2022/01/10 10:38:05;;;;;;;25.13;17.73;;;;;;;7.41;53.89;95432.34;5029259;28;20029;-66
2022/01/10 10:40:38;;;;;;;25.55;18.17;;;;;;;7.36;54.94;95440.34;5012743;28;20639;-64
2022/01/10 10:43:07;;;;;;;22.42;17.65;;;;;;;7.21;55.27;95410.25;5030589;28;20020;-66
2022/01/10 10:45:32;;;;;;;25.33;17.05;;;;;;;8.32;52.52;95436.03;5030954;28;20032;-64
2022/01/10 10:48:04;;;;;;;30.45;18.35;;;;;;;8.28;52.28;95440.31;5013069;28;20026;-65
2022/01/10 10:50:33;;;;;;;25.05;17.23;;;;;;;7.16;54.05;95367.19;5030153;28;20033;-67
2022/01/10 10:53:04;;;;;;;29.67;17.98;;;;;;;7.39;54.14;95381.56;5028466;28;20029;-66
2022/01/10 10:55:32;;;;;;;27.85;18.38;;;;;;;8.01;52.37;95380.72;5028593;28;20082;-66
2022/01/10 10:57:59;;;;;;;31.17;18.38;;;;;;;7.55;54.36;95465.06;5028585;28;20391;-67
2022/01/10 11:00:24;;;;;;;30.08;18.27;;;;;;;7.41;55.38;95461.47;5010812;28;20029;-65
2022/01/10 11:02:51;;;;;;;25.27;16.83;;;;;;;6.64;56.62;95459.25;5028598;28;20549;-66
2022/01/10 11:05:16;;;;;;;29.55;18.13;;;;;;;7.30;55.11;95424.50;5029604;28;20585;-68
2022/01/10 11:07:42;;;;;;;28.63;18.48;;;;;;;7.70;54.03;95451.72;5032606;28;20054;-65
2022/01/10 11:10:08;;;;;;;32.40;19.73;;;;;;;7.82;52.89;95416.91;5013796;28;20032;-66
2022/01/10 11:12:36;;;;;;;35.75;18.55;;;;;;;7.17;53.67;95403.97;5032009;28;20037;-67
2022/01/10 11:15:03;;;;;;;28.42;18.08;;;;;;;8.01;52.05;95446.16;5032291;28;20128;-65
2022/01/10 11:17:29;;;;;;;30.55;19.80;;;;;;;8.08;52.66;95484.47;5015219;28;20079;-65
2022/01/10 11:20:06;;;;;;;31.38;19.30;;;;;;;7.50;54.07;95494.22;5032269;28;20030;-65
2022/01/10 11:22:32;;;;;;;31.00;20.23;;;;;;;7.64;53.54;95479.31;5032447;28;20026;-65
2022/01/10 11:24:57;;;;;;;33.65;19.67;;;;;;;7.71;53.45;95463.88;5031463;28;20025;-63
2022/01/10 11:27:39;;;;;;;28.67;19.17;;;;;;;7.25;54.04;95466.06;5032044;28;20041;-66
2022/01/10 11:30:30;;;;;;;34.20;21.55;;;;;;;6.07;57.94;95513.28;5031908;28;20108;-65
2022/01/10 11:33:02;;;;;;;34.87;19.70;;;;;;;6.31;58.05;95505.59;5032445;28;20033;-67
2022/01/10 11:35:52;;;;;;;33.17;19.42;;;;;;;6.08;58.53;95522.78;5032736;28;20021;-66
2022/01/10 11:38:19;;;;;;;32.92;21.90;;;;;;;6.94;57.12;95513.06;5019528;28;20037;-66
2022/01/10 11:40:47;;;;;;;37.90;21.63;;;;;;;6.98;55.08;95500.88;5032590;28;20031;-66
2022/01/10 11:43:31;;;;;;;34.25;20.65;;;;;;;8.13;54.41;95512.00;5031653;28;20029;-66
2022/01/10 11:46:26;;;;;;;36.85;22.05;;;;;;;8.47;52.34;95512.78;5014376;28;20021;-64